sensor_id;sensor_type;location;lat;lon;timestamp;P1;durP1;ratioP1;P2;durP2;ratioP2
43990;SDS011;29654;50.784;20.604;2022-12-20T00:04:57;17.33;;;10.50;;
43990;SDS011;29654;50.784;20.604;2022-12-20T00:10:00;17.77;;;10.73;;
43990;SDS011;29654;50.784;20.604;2022-12-20T00:15:05;19.30;;;11.23;;
43990;SDS011;29654;50.784;20.604;2022-12-20T00:20:09;18.73;;;10.90;;
43990;SDS011;29654;50.784;20.604;2022-12-20T00:25:13;15.52;;;9.68;;
43990;SDS011;29654;50.784;20.604;2022-12-20T00:30:17;17.42;;;11.23;;
43990;SDS011;29654;50.784;20.604;2022-12-20T00:35:20;18.00;;;10.10;;
43990;SDS011;29654;50.784;20.604;2022-12-20T00:40:25;17.65;;;11.00;;
43990;SDS011;29654;50.784;20.604;2022-12-20T00:45:29;13.60;;;9.45;;
43990;SDS011;29654;50.784;20.604;2022-12-20T00:50:32;15.25;;;9.43;;
43990;SDS011;29654;50.784;20.604;2022-12-20T00:55:34;17.85;;;10.27;;
43990;SDS011;29654;50.784;20.604;2022-12-20T01:00:43;14.85;;;10.02;;
43990;SDS011;29654;50.784;20.604;2022-12-20T01:05:50;17.83;;;10.13;;
43990;SDS011;29654;50.784;20.604;2022-12-20T01:10:57;16.80;;;10.50;;
43990;SDS011;29654;50.784;20.604;2022-12-20T01:16:04;16.67;;;10.20;;
43990;SDS011;29654;50.784;20.604;2022-12-20T01:21:08;16.15;;;9.45;;
43990;SDS011;29654;50.784;20.604;2022-12-20T01:26:14;17.00;;;9.85;;
43990;SDS011;29654;50.784;20.604;2022-12-20T01:31:21;16.85;;;10.23;;
43990;SDS011;29654;50.784;20.604;2022-12-20T01:36:25;15.35;;;9.90;;
43990;SDS011;29654;50.784;20.604;2022-12-20T01:41:31;13.02;;;8.68;;
43990;SDS011;29654;50.784;20.604;2022-12-20T01:46:36;16.48;;;10.65;;
43990;SDS011;29654;50.784;20.604;2022-12-20T01:51:39;14.88;;;9.20;;
43990;SDS011;29654;50.784;20.604;2022-12-20T01:56:46;18.70;;;11.07;;
43990;SDS011;29654;50.784;20.604;2022-12-20T02:01:54;17.00;;;11.20;;
43990;SDS011;29654;50.784;20.604;2022-12-20T02:07:00;17.23;;;10.50;;
43990;SDS011;29654;50.784;20.604;2022-12-20T02:12:07;17.00;;;10.07;;
43990;SDS011;29654;50.784;20.604;2022-12-20T02:17:16;18.50;;;11.65;;
43990;SDS011;29654;50.784;20.604;2022-12-20T02:22:38;15.55;;;10.40;;
43990;SDS011;29654;50.784;20.604;2022-12-20T02:28:00;15.43;;;10.18;;
43990;SDS011;29654;50.784;20.604;2022-12-20T02:33:13;17.50;;;11.15;;
43990;SDS011;29654;50.784;20.604;2022-12-20T02:38:27;14.98;;;10.70;;
43990;SDS011;29654;50.784;20.604;2022-12-20T02:43:33;16.02;;;9.80;;
43990;SDS011;29654;50.784;20.604;2022-12-20T02:49:04;17.55;;;12.00;;
43990;SDS011;29654;50.784;20.604;2022-12-20T02:54:13;16.50;;;10.88;;
43990;SDS011;29654;50.784;20.604;2022-12-20T02:59:20;16.05;;;10.75;;
43990;SDS011;29654;50.784;20.604;2022-12-20T03:04:29;17.20;;;12.02;;
43990;SDS011;29654;50.784;20.604;2022-12-20T03:09:37;20.20;;;11.75;;
43990;SDS011;29654;50.784;20.604;2022-12-20T03:14:42;19.27;;;12.23;;
43990;SDS011;29654;50.784;20.604;2022-12-20T03:19:48;16.90;;;11.90;;
43990;SDS011;29654;50.784;20.604;2022-12-20T03:24:51;15.63;;;11.52;;
43990;SDS011;29654;50.784;20.604;2022-12-20T03:29:54;20.20;;;11.90;;
43990;SDS011;29654;50.784;20.604;2022-12-20T03:34:58;19.33;;;12.27;;
43990;SDS011;29654;50.784;20.604;2022-12-20T03:40:09;18.92;;;12.63;;
43990;SDS011;29654;50.784;20.604;2022-12-20T03:45:13;16.05;;;11.32;;
43990;SDS011;29654;50.784;20.604;2022-12-20T03:50:17;17.45;;;12.43;;
43990;SDS011;29654;50.784;20.604;2022-12-20T03:55:20;15.25;;;10.90;;
43990;SDS011;29654;50.784;20.604;2022-12-20T04:00:23;17.10;;;11.20;;
43990;SDS011;29654;50.784;20.604;2022-12-20T04:05:36;20.75;;;12.63;;
43990;SDS011;29654;50.784;20.604;2022-12-20T04:10:39;16.73;;;11.02;;
43990;SDS011;29654;50.784;20.604;2022-12-20T04:15:58;17.15;;;11.98;;
43990;SDS011;29654;50.784;20.604;2022-12-20T04:21:05;15.10;;;10.60;;
43990;SDS011;29654;50.784;20.604;2022-12-20T04:26:12;14.13;;;9.13;;
43990;SDS011;29654;50.784;20.604;2022-12-20T04:31:15;18.30;;;12.88;;
43990;SDS011;29654;50.784;20.604;2022-12-20T04:36:19;17.58;;;12.50;;
43990;SDS011;29654;50.784;20.604;2022-12-20T04:41:25;17.40;;;12.80;;
43990;SDS011;29654;50.784;20.604;2022-12-20T04:46:36;16.77;;;12.55;;
43990;SDS011;29654;50.784;20.604;2022-12-20T04:51:45;20.20;;;13.75;;
43990;SDS011;29654;50.784;20.604;2022-12-20T04:56:50;18.85;;;12.60;;
43990;SDS011;29654;50.784;20.604;2022-12-20T05:01:56;16.30;;;11.43;;
43990;SDS011;29654;50.784;20.604;2022-12-20T05:07:23;20.38;;;13.68;;
43990;SDS011;29654;50.784;20.604;2022-12-20T05:12:28;20.38;;;14.52;;
43990;SDS011;29654;50.784;20.604;2022-12-20T05:17:34;20.73;;;14.00;;
43990;SDS011;29654;50.784;20.604;2022-12-20T05:22:39;20.75;;;14.20;;
43990;SDS011;29654;50.784;20.604;2022-12-20T05:27:59;17.15;;;12.93;;
43990;SDS011;29654;50.784;20.604;2022-12-20T05:33:07;22.05;;;15.23;;
43990;SDS011;29654;50.784;20.604;2022-12-20T05:38:13;21.48;;;14.43;;
43990;SDS011;29654;50.784;20.604;2022-12-20T05:43:16;19.20;;;14.32;;
43990;SDS011;29654;50.784;20.604;2022-12-20T05:48:21;21.13;;;15.02;;
43990;SDS011;29654;50.784;20.604;2022-12-20T05:53:25;22.27;;;14.25;;
43990;SDS011;29654;50.784;20.604;2022-12-20T05:58:31;21.55;;;15.32;;
43990;SDS011;29654;50.784;20.604;2022-12-20T06:03:37;19.10;;;13.65;;
43990;SDS011;29654;50.784;20.604;2022-12-20T06:08:46;21.67;;;15.00;;
43990;SDS011;29654;50.784;20.604;2022-12-20T06:13:55;21.95;;;15.73;;
43990;SDS011;29654;50.784;20.604;2022-12-20T06:18:58;21.88;;;16.30;;
43990;SDS011;29654;50.784;20.604;2022-12-20T06:24:04;21.23;;;15.30;;
43990;SDS011;29654;50.784;20.604;2022-12-20T06:29:10;23.52;;;16.90;;
43990;SDS011;29654;50.784;20.604;2022-12-20T06:34:25;25.67;;;16.48;;
43990;SDS011;29654;50.784;20.604;2022-12-20T06:39:30;21.85;;;15.93;;
43990;SDS011;29654;50.784;20.604;2022-12-20T06:44:37;19.13;;;14.38;;
43990;SDS011;29654;50.784;20.604;2022-12-20T06:49:40;20.23;;;13.82;;
43990;SDS011;29654;50.784;20.604;2022-12-20T06:54:53;21.02;;;14.57;;
43990;SDS011;29654;50.784;20.604;2022-12-20T06:59:56;24.27;;;16.73;;
43990;SDS011;29654;50.784;20.604;2022-12-20T07:04:59;21.80;;;15.77;;
43990;SDS011;29654;50.784;20.604;2022-12-20T07:10:05;20.15;;;13.70;;
43990;SDS011;29654;50.784;20.604;2022-12-20T07:15:10;19.73;;;14.70;;
43990;SDS011;29654;50.784;20.604;2022-12-20T07:20:13;23.27;;;15.75;;
43990;SDS011;29654;50.784;20.604;2022-12-20T07:25:18;24.67;;;16.45;;
43990;SDS011;29654;50.784;20.604;2022-12-20T07:30:21;24.25;;;16.00;;
43990;SDS011;29654;50.784;20.604;2022-12-20T07:35:23;26.80;;;17.52;;
43990;SDS011;29654;50.784;20.604;2022-12-20T07:40:28;28.30;;;17.67;;
43990;SDS011;29654;50.784;20.604;2022-12-20T07:45:31;21.70;;;15.38;;
43990;SDS011;29654;50.784;20.604;2022-12-20T07:50:34;23.17;;;16.10;;
43990;SDS011;29654;50.784;20.604;2022-12-20T07:55:38;23.08;;;15.40;;
43990;SDS011;29654;50.784;20.604;2022-12-20T08:00:41;23.65;;;16.27;;
43990;SDS011;29654;50.784;20.604;2022-12-20T08:05:45;23.02;;;15.07;;
43990;SDS011;29654;50.784;20.604;2022-12-20T08:10:53;24.92;;;16.33;;
43990;SDS011;29654;50.784;20.604;2022-12-20T08:15:56;25.25;;;16.85;;
43990;SDS011;29654;50.784;20.604;2022-12-20T08:21:00;27.35;;;18.10;;
43990;SDS011;29654;50.784;20.604;2022-12-20T08:26:04;25.05;;;17.85;;
43990;SDS011;29654;50.784;20.604;2022-12-20T08:31:07;26.42;;;17.33;;
43990;SDS011;29654;50.784;20.604;2022-12-20T08:36:12;24.60;;;17.35;;
43990;SDS011;29654;50.784;20.604;2022-12-20T08:41:16;22.52;;;16.42;;
43990;SDS011;29654;50.784;20.604;2022-12-20T08:46:19;24.17;;;17.35;;
43990;SDS011;29654;50.784;20.604;2022-12-20T08:51:22;22.95;;;17.10;;
43990;SDS011;29654;50.784;20.604;2022-12-20T08:56:27;24.33;;;17.23;;
43990;SDS011;29654;50.784;20.604;2022-12-20T09:01:29;25.83;;;18.08;;
43990;SDS011;29654;50.784;20.604;2022-12-20T09:06:33;24.13;;;16.48;;
43990;SDS011;29654;50.784;20.604;2022-12-20T09:11:38;22.85;;;17.58;;
43990;SDS011;29654;50.784;20.604;2022-12-20T09:16:41;24.67;;;18.05;;
43990;SDS011;29654;50.784;20.604;2022-12-20T09:21:44;23.50;;;17.08;;
43990;SDS011;29654;50.784;20.604;2022-12-20T09:26:48;24.10;;;17.45;;
43990;SDS011;29654;50.784;20.604;2022-12-20T09:31:51;24.45;;;18.15;;
43990;SDS011;29654;50.784;20.604;2022-12-20T09:36:54;24.23;;;17.50;;
43990;SDS011;29654;50.784;20.604;2022-12-20T09:41:58;26.23;;;17.33;;
43990;SDS011;29654;50.784;20.604;2022-12-20T09:47:03;26.83;;;17.90;;
43990;SDS011;29654;50.784;20.604;2022-12-20T09:52:30;26.52;;;18.15;;
43990;SDS011;29654;50.784;20.604;2022-12-20T09:57:54;23.88;;;17.50;;
43990;SDS011;29654;50.784;20.604;2022-12-20T10:03:14;26.48;;;18.50;;
43990;SDS011;29654;50.784;20.604;2022-12-20T10:08:30;26.60;;;17.48;;
43990;SDS011;29654;50.784;20.604;2022-12-20T10:13:50;22.67;;;16.80;;
43990;SDS011;29654;50.784;20.604;2022-12-20T10:19:04;23.85;;;16.98;;
43990;SDS011;29654;50.784;20.604;2022-12-20T10:24:24;23.58;;;16.80;;
43990;SDS011;29654;50.784;20.604;2022-12-20T10:29:32;26.67;;;18.35;;
43990;SDS011;29654;50.784;20.604;2022-12-20T10:34:34;23.75;;;17.02;;
43990;SDS011;29654;50.784;20.604;2022-12-20T10:39:39;25.55;;;18.02;;
43990;SDS011;29654;50.784;20.604;2022-12-20T10:44:45;22.85;;;17.10;;
43990;SDS011;29654;50.784;20.604;2022-12-20T10:49:48;25.10;;;17.98;;
43990;SDS011;29654;50.784;20.604;2022-12-20T10:54:50;26.50;;;19.00;;
43990;SDS011;29654;50.784;20.604;2022-12-20T10:59:55;25.88;;;18.90;;
43990;SDS011;29654;50.784;20.604;2022-12-20T11:05:00;23.45;;;17.17;;
43990;SDS011;29654;50.784;20.604;2022-12-20T11:10:19;24.88;;;18.67;;
43990;SDS011;29654;50.784;20.604;2022-12-20T11:15:26;26.63;;;19.38;;
43990;SDS011;29654;50.784;20.604;2022-12-20T11:20:34;23.92;;;18.52;;
43990;SDS011;29654;50.784;20.604;2022-12-20T11:25:52;27.75;;;19.70;;
43990;SDS011;29654;50.784;20.604;2022-12-20T11:31:17;26.95;;;20.17;;
43990;SDS011;29654;50.784;20.604;2022-12-20T11:36:28;25.92;;;20.27;;
43990;SDS011;29654;50.784;20.604;2022-12-20T11:41:47;27.92;;;21.40;;
43990;SDS011;29654;50.784;20.604;2022-12-20T11:47:05;30.05;;;21.25;;
43990;SDS011;29654;50.784;20.604;2022-12-20T11:52:35;29.38;;;19.60;;
43990;SDS011;29654;50.784;20.604;2022-12-20T11:57:45;31.33;;;22.70;;
43990;SDS011;29654;50.784;20.604;2022-12-20T12:02:57;28.83;;;20.80;;
43990;SDS011;29654;50.784;20.604;2022-12-20T12:08:06;29.05;;;20.85;;
43990;SDS011;29654;50.784;20.604;2022-12-20T12:13:16;26.77;;;19.85;;
43990;SDS011;29654;50.784;20.604;2022-12-20T12:18:26;30.60;;;21.10;;
43990;SDS011;29654;50.784;20.604;2022-12-20T12:23:31;33.13;;;21.13;;
43990;SDS011;29654;50.784;20.604;2022-12-20T12:28:47;27.67;;;20.75;;
43990;SDS011;29654;50.784;20.604;2022-12-20T12:33:59;28.02;;;21.33;;
43990;SDS011;29654;50.784;20.604;2022-12-20T12:39:36;30.45;;;21.20;;
43990;SDS011;29654;50.784;20.604;2022-12-20T12:45:23;33.67;;;22.92;;
43990;SDS011;29654;50.784;20.604;2022-12-20T12:50:32;32.38;;;21.77;;
43990;SDS011;29654;50.784;20.604;2022-12-20T12:55:40;34.72;;;23.80;;
43990;SDS011;29654;50.784;20.604;2022-12-20T13:00:49;36.78;;;23.95;;
43990;SDS011;29654;50.784;20.604;2022-12-20T13:05:55;32.03;;;22.33;;
43990;SDS011;29654;50.784;20.604;2022-12-20T13:10:58;31.48;;;22.42;;
43990;SDS011;29654;50.784;20.604;2022-12-20T13:16:12;31.30;;;22.48;;
43990;SDS011;29654;50.784;20.604;2022-12-20T13:21:35;33.10;;;23.13;;
43990;SDS011;29654;50.784;20.604;2022-12-20T13:26:49;33.97;;;24.02;;
43990;SDS011;29654;50.784;20.604;2022-12-20T13:31:53;33.03;;;23.23;;
43990;SDS011;29654;50.784;20.604;2022-12-20T13:36:58;33.70;;;23.45;;
43990;SDS011;29654;50.784;20.604;2022-12-20T13:42:15;32.72;;;22.63;;
43990;SDS011;29654;50.784;20.604;2022-12-20T13:47:33;32.97;;;22.23;;
43990;SDS011;29654;50.784;20.604;2022-12-20T13:52:41;29.08;;;21.13;;
43990;SDS011;29654;50.784;20.604;2022-12-20T13:57:45;32.05;;;22.63;;
43990;SDS011;29654;50.784;20.604;2022-12-20T14:02:48;32.90;;;23.00;;
43990;SDS011;29654;50.784;20.604;2022-12-20T14:07:54;33.20;;;23.65;;
43990;SDS011;29654;50.784;20.604;2022-12-20T14:13:01;30.50;;;21.05;;
43990;SDS011;29654;50.784;20.604;2022-12-20T14:18:04;33.47;;;24.95;;
43990;SDS011;29654;50.784;20.604;2022-12-20T14:23:19;32.08;;;23.88;;
43990;SDS011;29654;50.784;20.604;2022-12-20T14:28:26;32.55;;;23.55;;
43990;SDS011;29654;50.784;20.604;2022-12-20T14:33:33;35.83;;;23.77;;
43990;SDS011;29654;50.784;20.604;2022-12-20T14:38:39;30.35;;;22.50;;
43990;SDS011;29654;50.784;20.604;2022-12-20T14:43:43;28.20;;;21.67;;
43990;SDS011;29654;50.784;20.604;2022-12-20T14:48:45;31.92;;;23.50;;
43990;SDS011;29654;50.784;20.604;2022-12-20T14:53:50;35.28;;;24.10;;
43990;SDS011;29654;50.784;20.604;2022-12-20T14:59:04;32.80;;;22.95;;
43990;SDS011;29654;50.784;20.604;2022-12-20T15:04:24;32.00;;;23.38;;
43990;SDS011;29654;50.784;20.604;2022-12-20T15:09:34;25.80;;;19.10;;
43990;SDS011;29654;50.784;20.604;2022-12-20T15:14:37;32.72;;;23.42;;
43990;SDS011;29654;50.784;20.604;2022-12-20T15:19:40;36.00;;;23.58;;
43990;SDS011;29654;50.784;20.604;2022-12-20T15:24:44;34.30;;;24.10;;
43990;SDS011;29654;50.784;20.604;2022-12-20T15:29:47;34.53;;;23.83;;
43990;SDS011;29654;50.784;20.604;2022-12-20T15:34:52;34.28;;;23.35;;
43990;SDS011;29654;50.784;20.604;2022-12-20T15:39:56;33.55;;;23.45;;
43990;SDS011;29654;50.784;20.604;2022-12-20T15:44:59;33.05;;;23.90;;
43990;SDS011;29654;50.784;20.604;2022-12-20T15:50:03;33.38;;;24.30;;
43990;SDS011;29654;50.784;20.604;2022-12-20T15:55:10;33.72;;;23.92;;
43990;SDS011;29654;50.784;20.604;2022-12-20T16:00:13;37.47;;;25.10;;
43990;SDS011;29654;50.784;20.604;2022-12-20T16:05:17;37.28;;;26.23;;
43990;SDS011;29654;50.784;20.604;2022-12-20T16:10:21;43.08;;;27.70;;
43990;SDS011;29654;50.784;20.604;2022-12-20T16:15:23;42.63;;;29.20;;
43990;SDS011;29654;50.784;20.604;2022-12-20T16:20:26;38.95;;;25.00;;
43990;SDS011;29654;50.784;20.604;2022-12-20T16:25:31;42.40;;;28.85;;
43990;SDS011;29654;50.784;20.604;2022-12-20T16:30:36;41.25;;;28.05;;
43990;SDS011;29654;50.784;20.604;2022-12-20T16:35:38;39.35;;;25.92;;
43990;SDS011;29654;50.784;20.604;2022-12-20T16:40:42;35.70;;;24.75;;
43990;SDS011;29654;50.784;20.604;2022-12-20T16:45:45;34.85;;;24.38;;
43990;SDS011;29654;50.784;20.604;2022-12-20T16:50:48;36.45;;;25.55;;
43990;SDS011;29654;50.784;20.604;2022-12-20T16:55:52;41.20;;;27.70;;
43990;SDS011;29654;50.784;20.604;2022-12-20T17:00:54;40.70;;;27.27;;
43990;SDS011;29654;50.784;20.604;2022-12-20T17:05:57;39.63;;;27.15;;
43990;SDS011;29654;50.784;20.604;2022-12-20T17:11:01;43.42;;;29.70;;
43990;SDS011;29654;50.784;20.604;2022-12-20T17:16:04;43.40;;;30.75;;
43990;SDS011;29654;50.784;20.604;2022-12-20T17:21:16;40.97;;;27.40;;
43990;SDS011;29654;50.784;20.604;2022-12-20T17:26:28;42.85;;;30.30;;
43990;SDS011;29654;50.784;20.604;2022-12-20T17:31:32;41.25;;;28.75;;
43990;SDS011;29654;50.784;20.604;2022-12-20T17:36:38;47.17;;;32.25;;
43990;SDS011;29654;50.784;20.604;2022-12-20T17:41:42;43.38;;;31.13;;
43990;SDS011;29654;50.784;20.604;2022-12-20T17:46:45;45.90;;;31.58;;
43990;SDS011;29654;50.784;20.604;2022-12-20T17:51:49;52.40;;;34.10;;
43990;SDS011;29654;50.784;20.604;2022-12-20T17:56:53;58.92;;;38.08;;
43990;SDS011;29654;50.784;20.604;2022-12-20T18:01:56;58.97;;;38.22;;
43990;SDS011;29654;50.784;20.604;2022-12-20T18:06:59;53.22;;;37.22;;
43990;SDS011;29654;50.784;20.604;2022-12-20T18:12:03;45.13;;;32.83;;
43990;SDS011;29654;50.784;20.604;2022-12-20T18:17:06;48.05;;;32.95;;
43990;SDS011;29654;50.784;20.604;2022-12-20T18:22:08;48.30;;;32.75;;
43990;SDS011;29654;50.784;20.604;2022-12-20T18:27:12;52.67;;;36.67;;
43990;SDS011;29654;50.784;20.604;2022-12-20T18:32:15;44.83;;;30.58;;
43990;SDS011;29654;50.784;20.604;2022-12-20T18:37:17;60.97;;;38.33;;
43990;SDS011;29654;50.784;20.604;2022-12-20T18:42:21;44.28;;;32.38;;
43990;SDS011;29654;50.784;20.604;2022-12-20T18:47:24;47.00;;;32.88;;
43990;SDS011;29654;50.784;20.604;2022-12-20T18:52:28;44.00;;;30.92;;
43990;SDS011;29654;50.784;20.604;2022-12-20T18:57:32;46.65;;;32.10;;
43990;SDS011;29654;50.784;20.604;2022-12-20T19:02:35;46.55;;;32.03;;
43990;SDS011;29654;50.784;20.604;2022-12-20T19:07:37;48.03;;;32.30;;
43990;SDS011;29654;50.784;20.604;2022-12-20T19:12:41;40.72;;;27.20;;
43990;SDS011;29654;50.784;20.604;2022-12-20T19:17:44;44.53;;;30.30;;
43990;SDS011;29654;50.784;20.604;2022-12-20T19:22:47;45.97;;;32.80;;
43990;SDS011;29654;50.784;20.604;2022-12-20T19:27:54;52.03;;;32.67;;
43990;SDS011;29654;50.784;20.604;2022-12-20T19:32:57;52.30;;;36.35;;
43990;SDS011;29654;50.784;20.604;2022-12-20T19:37:59;59.13;;;40.13;;
43990;SDS011;29654;50.784;20.604;2022-12-20T19:43:03;69.53;;;44.53;;
43990;SDS011;29654;50.784;20.604;2022-12-20T19:48:06;65.35;;;42.33;;
43990;SDS011;29654;50.784;20.604;2022-12-20T19:53:09;56.55;;;40.28;;
43990;SDS011;29654;50.784;20.604;2022-12-20T19:58:13;49.63;;;33.92;;
43990;SDS011;29654;50.784;20.604;2022-12-20T20:03:16;62.33;;;40.28;;
43990;SDS011;29654;50.784;20.604;2022-12-20T20:08:19;88.88;;;64.15;;
43990;SDS011;29654;50.784;20.604;2022-12-20T20:13:23;62.83;;;40.92;;
43990;SDS011;29654;50.784;20.604;2022-12-20T20:18:27;60.25;;;37.22;;
43990;SDS011;29654;50.784;20.604;2022-12-20T20:23:30;52.78;;;35.05;;
43990;SDS011;29654;50.784;20.604;2022-12-20T20:28:35;53.50;;;35.53;;
43990;SDS011;29654;50.784;20.604;2022-12-20T20:33:38;53.55;;;36.45;;
43990;SDS011;29654;50.784;20.604;2022-12-20T20:38:41;54.13;;;36.38;;
43990;SDS011;29654;50.784;20.604;2022-12-20T20:43:46;54.50;;;37.92;;
43990;SDS011;29654;50.784;20.604;2022-12-20T20:48:49;51.10;;;34.90;;
43990;SDS011;29654;50.784;20.604;2022-12-20T20:53:52;54.13;;;35.97;;
43990;SDS011;29654;50.784;20.604;2022-12-20T20:58:56;52.95;;;35.67;;
43990;SDS011;29654;50.784;20.604;2022-12-20T21:03:58;52.78;;;34.95;;
43990;SDS011;29654;50.784;20.604;2022-12-20T21:09:02;54.13;;;35.78;;
43990;SDS011;29654;50.784;20.604;2022-12-20T21:14:07;52.42;;;33.85;;
43990;SDS011;29654;50.784;20.604;2022-12-20T21:19:10;43.38;;;29.40;;
43990;SDS011;29654;50.784;20.604;2022-12-20T21:24:13;52.53;;;33.13;;
43990;SDS011;29654;50.784;20.604;2022-12-20T21:29:17;47.03;;;30.67;;
43990;SDS011;29654;50.784;20.604;2022-12-20T21:34:20;53.17;;;34.38;;
43990;SDS011;29654;50.784;20.604;2022-12-20T21:39:23;53.00;;;34.70;;
43990;SDS011;29654;50.784;20.604;2022-12-20T21:44:27;52.78;;;36.42;;
43990;SDS011;29654;50.784;20.604;2022-12-20T21:49:30;47.28;;;31.25;;
43990;SDS011;29654;50.784;20.604;2022-12-20T21:54:33;48.35;;;32.28;;
43990;SDS011;29654;50.784;20.604;2022-12-20T21:59:37;46.90;;;30.40;;
43990;SDS011;29654;50.784;20.604;2022-12-20T22:04:42;50.80;;;34.72;;
43990;SDS011;29654;50.784;20.604;2022-12-20T22:09:44;52.15;;;33.72;;
43990;SDS011;29654;50.784;20.604;2022-12-20T22:14:48;53.63;;;34.67;;
43990;SDS011;29654;50.784;20.604;2022-12-20T22:19:51;51.53;;;34.53;;
43990;SDS011;29654;50.784;20.604;2022-12-20T22:24:53;47.00;;;32.90;;
43990;SDS011;29654;50.784;20.604;2022-12-20T22:29:57;48.08;;;32.45;;
43990;SDS011;29654;50.784;20.604;2022-12-20T22:35:00;46.33;;;31.63;;
43990;SDS011;29654;50.784;20.604;2022-12-20T22:40:03;45.30;;;28.42;;
43990;SDS011;29654;50.784;20.604;2022-12-20T22:45:09;47.35;;;30.92;;
43990;SDS011;29654;50.784;20.604;2022-12-20T22:50:12;47.85;;;30.73;;
43990;SDS011;29654;50.784;20.604;2022-12-20T22:55:15;43.58;;;29.15;;
43990;SDS011;29654;50.784;20.604;2022-12-20T23:00:20;42.58;;;27.85;;
43990;SDS011;29654;50.784;20.604;2022-12-20T23:05:23;46.67;;;29.27;;
43990;SDS011;29654;50.784;20.604;2022-12-20T23:10:26;43.67;;;29.30;;
43990;SDS011;29654;50.784;20.604;2022-12-20T23:15:47;46.28;;;30.20;;
43990;SDS011;29654;50.784;20.604;2022-12-20T23:20:49;44.55;;;28.98;;
43990;SDS011;29654;50.784;20.604;2022-12-20T23:26:11;47.53;;;30.88;;
43990;SDS011;29654;50.784;20.604;2022-12-20T23:31:18;44.83;;;30.92;;
43990;SDS011;29654;50.784;20.604;2022-12-20T23:36:20;44.78;;;29.90;;
43990;SDS011;29654;50.784;20.604;2022-12-20T23:41:23;44.97;;;31.63;;
43990;SDS011;29654;50.784;20.604;2022-12-20T23:46:27;48.95;;;31.63;;
43990;SDS011;29654;50.784;20.604;2022-12-20T23:51:30;45.10;;;31.00;;
43990;SDS011;29654;50.784;20.604;2022-12-20T23:56:33;42.00;;;28.67;;
